Time;durP1;ratioP1;P1;durP2;ratioP2;P2;SDS_P1;SDS_P2;PMS_P1;PMS_P2;Temp;Humidity;BMP_temperature;BMP_pressure;BME280_temperature;BME280_humidity;BME280_pressure;Samples;Min_cycle;Max_cycle;Signal;HPM_P1;HPM_P2
2022/07/27 00:02:17;;;;;;;6.37;3.10;;;21.20;61.50;;;;;;5067391;28;20193;-71
2022/07/27 00:04:42;;;;;;;5.03;3.03;;;21.10;61.90;;;;;;5070056;28;20227;-71
2022/07/27 00:07:08;;;;;;;3.70;2.67;;;21.00;62.20;;;;;;5069951;28;20574;-71
2022/07/27 00:09:33;;;;;;;4.77;3.10;;;21.00;62.30;;;;;;5072821;28;20192;-71
2022/07/27 00:11:59;;;;;;;5.43;2.90;;;21.00;62.50;;;;;;5073114;28;20692;-72
2022/07/27 00:14:25;;;;;;;6.50;3.70;;;21.00;62.50;;;;;;5068775;28;20191;-71
2022/07/27 00:16:50;;;;;;;4.63;3.30;;;20.80;63.10;;;;;;5066014;28;20227;-72
2022/07/27 00:19:16;;;;;;;3.73;3.53;;;20.90;63.20;;;;;;5073006;28;20656;-70
2022/07/27 00:21:42;;;;;;;5.63;2.90;;;21.00;62.90;;;;;;5073016;28;20251;-71
2022/07/27 00:24:08;;;;;;;5.53;3.77;;;21.00;62.80;;;;;;5073644;28;20190;-71
2022/07/27 00:26:33;;;;;;;4.60;3.33;;;21.00;62.80;;;;;;5071792;28;20284;-70
2022/07/27 00:28:59;;;;;;;6.30;4.17;;;21.00;63.10;;;;;;5072127;28;20508;-72
2022/07/27 00:31:24;;;;;;;5.53;3.80;;;21.10;62.80;;;;;;5072888;28;20213;-71
2022/07/27 00:33:50;;;;;;;4.03;3.60;;;21.00;63.20;;;;;;5073290;28;20190;-72
2022/07/27 00:36:16;;;;;;;5.23;4.20;;;21.00;63.20;;;;;;5068118;28;20971;-72
2022/07/27 00:38:41;;;;;;;5.53;3.37;;;21.00;63.10;;;;;;5071300;28;20190;-70
2022/07/27 00:41:07;;;;;;;8.70;3.83;;;20.90;63.50;;;;;;5072811;28;20570;-70
2022/07/27 00:43:58;;;;;;;5.20;3.80;;;21.00;63.50;;;;;;5073120;28;20221;-71
2022/07/27 00:46:26;;;;;;;7.10;4.13;;;21.00;63.50;;;;;;5061286;28;20209;-71
2022/07/27 00:48:52;;;;;;;6.10;3.53;;;21.00;63.50;;;;;;5072142;28;21056;-71
2022/07/27 00:51:19;;;;;;;5.93;4.00;;;21.00;63.40;;;;;;5072409;28;20420;-71
2022/07/27 00:53:45;;;;;;;5.63;3.90;;;20.90;63.50;;;;;;5069833;28;20786;-71
2022/07/27 00:56:11;;;;;;;13.87;4.20;;;20.90;63.80;;;;;;5061685;28;20506;-71
2022/07/27 00:58:37;;;;;;;4.73;3.77;;;20.70;64.40;;;;;;5071926;28;20478;-72
2022/07/27 01:01:04;;;;;;;5.10;3.87;;;20.70;64.70;;;;;;5067366;28;20209;-70
2022/07/27 01:03:30;;;;;;;6.67;4.00;;;20.60;65.00;;;;;;5065941;28;20456;-70
2022/07/27 01:05:56;;;;;;;6.00;3.80;;;20.70;64.70;;;;;;5071650;28;20432;-71
2022/07/27 01:08:22;;;;;;;9.27;4.53;;;20.70;64.50;;;;;;5071125;28;20467;-71
2022/07/27 01:10:49;;;;;;;4.63;3.90;;;20.70;64.40;;;;;;5064111;28;20436;-71
2022/07/27 01:13:15;;;;;;;6.43;3.77;;;20.60;65.00;;;;;;5064883;28;20208;-71
2022/07/27 01:15:42;;;;;;;7.83;4.10;;;20.40;65.40;;;;;;5072583;28;20427;-71
2022/07/27 01:18:32;;;;;;;6.70;4.00;;;20.50;65.60;;;;;;5064207;28;21020;-71
2022/07/27 01:20:59;;;;;;;5.10;3.53;;;20.50;65.60;;;;;;5069689;28;20520;-70
2022/07/27 01:23:26;;;;;;;5.07;3.60;;;20.50;65.40;;;;;;5066477;28;20427;-71
2022/07/27 01:25:52;;;;;;;5.60;4.20;;;20.50;65.60;;;;;;5068913;28;20420;-71
2022/07/27 01:28:18;;;;;;;8.63;4.40;;;20.50;65.60;;;;;;5070698;28;20472;-72
2022/07/27 01:30:44;;;;;;;5.20;3.90;;;20.60;65.30;;;;;;5072267;28;20434;-73
2022/07/27 01:33:09;;;;;;;5.93;3.90;;;20.60;65.40;;;;;;5071713;28;20269;-71
2022/07/27 01:35:37;;;;;;;6.97;4.40;;;20.40;65.80;;;;;;5072509;28;20234;-72
2022/07/27 01:38:04;;;;;;;7.40;4.90;;;20.40;66.00;;;;;;5068005;28;20224;-72
2022/07/27 01:40:29;;;;;;;5.70;4.17;;;20.30;66.40;;;;;;5071450;28;20454;-73
2022/07/27 01:42:55;;;;;;;6.60;4.67;;;20.30;66.30;;;;;;5072157;28;20506;-71
2022/07/27 01:45:21;;;;;;;5.33;3.93;;;20.40;66.00;;;;;;5070889;28;20193;-71
2022/07/27 01:47:47;;;;;;;5.83;3.73;;;20.30;66.40;;;;;;5064171;28;20296;-73
2022/07/27 01:50:13;;;;;;;6.27;4.00;;;20.30;66.60;;;;;;5067555;28;20180;-72
2022/07/27 01:52:39;;;;;;;6.87;4.20;;;20.30;66.40;;;;;;5065816;28;20565;-71
2022/07/27 01:55:09;;;;;;;6.17;4.20;;;20.10;67.20;;;;;;5066099;28;20479;-71
2022/07/27 01:57:35;;;;;;;7.83;4.90;;;19.90;68.00;;;;;;5068831;28;20218;-72
2022/07/27 02:00:02;;;;;;;5.63;4.47;;;19.90;68.00;;;;;;5068085;28;21189;-72
2022/07/27 02:02:28;;;;;;;7.60;4.43;;;19.90;68.20;;;;;;5066151;28;20451;-72
2022/07/27 02:04:53;;;;;;;5.30;4.13;;;19.90;68.00;;;;;;5069918;28;20485;-73
2022/07/27 02:07:19;;;;;;;6.47;4.80;;;19.90;68.00;;;;;;5066400;28;20216;-72
2022/07/27 02:09:44;;;;;;;7.90;4.20;;;20.00;67.70;;;;;;5068440;28;20185;-72
2022/07/27 02:14:54;;;;;;;7.63;4.80;;;19.90;68.00;;;;;;5065338;28;20285;-72
2022/07/27 02:17:20;;;;;;;7.37;4.53;;;19.80;68.50;;;;;;5063144;28;20515;-73
2022/07/27 02:19:46;;;;;;;6.87;4.50;;;19.80;68.60;;;;;;5065176;28;20549;-71
2022/07/27 02:22:11;;;;;;;9.63;4.13;;;19.70;68.90;;;;;;5071846;28;20180;-71
2022/07/27 02:24:38;;;;;;;5.90;4.13;;;19.70;69.20;;;;;;5070532;28;20258;-71
2022/07/27 02:27:03;;;;;;;7.17;4.83;;;19.70;68.90;;;;;;5068700;28;20221;-72
2022/07/27 02:29:29;;;;;;;12.30;4.40;;;19.70;69.10;;;;;;5070614;28;20766;-71
2022/07/27 02:31:55;;;;;;;6.87;4.83;;;19.70;69.20;;;;;;5071275;28;20181;-71
2022/07/27 02:34:21;;;;;;;6.23;4.50;;;19.70;69.10;;;;;;5070369;28;20195;-71
2022/07/27 02:36:47;;;;;;;6.63;5.20;;;19.70;69.20;;;;;;5070122;28;20515;-72
2022/07/27 02:39:13;;;;;;;7.73;4.70;;;19.60;69.50;;;;;;5071290;28;20206;-71
2022/07/27 02:41:38;;;;;;;6.10;4.80;;;19.40;70.20;;;;;;5072296;28;20756;-71
2022/07/27 02:44:04;;;;;;;8.97;5.37;;;19.20;71.00;;;;;;5070115;28;20267;-71
2022/07/27 02:46:29;;;;;;;13.20;5.47;;;19.20;71.30;;;;;;5065140;28;20210;-71
2022/07/27 02:48:55;;;;;;;7.80;4.67;;;19.20;71.30;;;;;;5067892;28;20346;-71
2022/07/27 02:51:21;;;;;;;6.47;4.83;;;19.20;71.30;;;;;;5062504;28;20236;-71
2022/07/27 02:53:46;;;;;;;5.57;4.10;;;19.20;71.60;;;;;;5066674;28;20185;-70
2022/07/27 02:56:12;;;;;;;9.17;4.80;;;19.30;71.60;;;;;;5069303;28;20211;-70
2022/07/27 02:58:37;;;;;;;9.83;5.10;;;19.30;71.30;;;;;;5069201;28;20246;-70
2022/07/27 03:01:04;;;;;;;6.80;4.90;;;19.30;71.30;;;;;;5067418;28;20202;-72
2022/07/27 03:03:30;;;;;;;7.10;4.40;;;19.20;71.60;;;;;;5073202;28;20651;-71
2022/07/27 03:05:55;;;;;;;9.17;4.80;;;19.20;71.80;;;;;;5072738;28;20438;-71
2022/07/27 03:08:21;;;;;;;7.10;4.87;;;19.20;71.80;;;;;;5066916;28;20223;-71
2022/07/27 03:10:47;;;;;;;7.27;5.10;;;19.10;72.10;;;;;;5066890;28;20190;-71
2022/07/27 03:13:13;;;;;;;9.30;4.67;;;19.00;72.70;;;;;;5071467;28;20655;-71
2022/07/27 03:15:39;;;;;;;7.00;5.10;;;18.90;73.00;;;;;;5068232;28;20434;-70
2022/07/27 03:18:05;;;;;;;7.17;5.30;;;19.00;72.90;;;;;;5065179;28;20539;-71
2022/07/27 03:20:31;;;;;;;6.43;4.30;;;19.00;72.70;;;;;;5066835;28;20533;-71
2022/07/27 03:22:56;;;;;;;6.60;4.47;;;19.00;72.70;;;;;;5064500;28;20924;-70
2022/07/27 03:25:22;;;;;;;8.50;5.17;;;19.10;72.40;;;;;;5071727;28;20194;-71
2022/07/27 03:27:48;;;;;;;5.90;4.80;;;19.10;72.40;;;;;;5059539;28;20269;-71
2022/07/27 03:30:14;;;;;;;6.87;5.00;;;19.10;72.60;;;;;;5069986;28;20514;-72
2022/07/27 03:32:39;;;;;;;6.67;4.60;;;19.20;72.30;;;;;;5069599;28;20261;-71
2022/07/27 03:35:05;;;;;;;6.20;4.80;;;19.20;72.10;;;;;;5071769;28;20187;-71
2022/07/27 03:37:31;;;;;;;11.10;5.20;;;19.20;72.40;;;;;;5070480;28;20218;-71
2022/07/27 03:39:57;;;;;;;8.60;5.57;;;18.90;73.20;;;;;;5063807;28;20433;-71
2022/07/27 03:42:22;;;;;;;7.77;5.37;;;18.90;73.50;;;;;;5072159;28;20184;-70
2022/07/27 03:44:48;;;;;;;7.30;5.17;;;18.90;73.50;;;;;;5072329;28;20187;-71
2022/07/27 03:47:13;;;;;;;6.87;5.17;;;18.80;73.70;;;;;;5073065;28;20215;-71
2022/07/27 03:49:39;;;;;;;7.20;5.37;;;18.80;73.90;;;;;;5069732;28;20525;-70
2022/07/27 03:52:05;;;;;;;8.37;5.53;;;18.60;74.20;;;;;;5073217;28;20184;-71
2022/07/27 03:54:31;;;;;;;7.23;5.20;;;18.50;74.80;;;;;;5065851;28;20179;-71
2022/07/27 03:56:56;;;;;;;10.07;5.03;;;18.50;74.90;;;;;;5067517;28;20456;-70
2022/07/27 03:59:22;;;;;;;14.53;5.27;;;18.50;74.90;;;;;;5073836;28;20243;-69
2022/07/27 04:01:48;;;;;;;5.57;4.70;;;18.60;74.90;;;;;;5074467;28;20235;-70
2022/07/27 04:04:13;;;;;;;7.60;5.10;;;18.50;75.10;;;;;;5070895;28;20268;-70
2022/07/27 04:06:39;;;;;;;6.33;5.10;;;18.40;75.40;;;;;;5066262;28;20207;-70
2022/07/27 04:09:05;;;;;;;7.10;5.23;;;18.50;75.40;;;;;;5072713;28;20213;-71
2022/07/27 04:11:30;;;;;;;9.17;5.73;;;18.60;75.40;;;;;;5074331;28;20653;-72
2022/07/27 04:13:56;;;;;;;8.63;5.00;;;18.60;75.10;;;;;;5062189;28;20268;-70
2022/07/27 04:16:22;;;;;;;7.73;5.50;;;18.60;75.20;;;;;;5060667;28;20222;-70
2022/07/27 04:18:48;;;;;;;9.17;5.57;;;18.50;75.50;;;;;;5070024;28;20428;-71
2022/07/27 04:21:14;;;;;;;8.70;5.30;;;18.40;75.90;;;;;;5073605;28;20235;-70
2022/07/27 04:23:41;;;;;;;7.57;5.77;;;18.40;76.10;;;;;;5072822;28;20899;-71
2022/07/27 04:26:06;;;;;;;7.83;5.93;;;18.50;75.80;;;;;;5070134;28;20459;-70
2022/07/27 04:28:32;;;;;;;8.93;5.97;;;18.40;76.10;;;;;;5069936;28;20490;-71
2022/07/27 04:30:58;;;;;;;9.63;5.57;;;18.30;77.00;;;;;;5063187;28;20186;-72
2022/07/27 04:33:23;;;;;;;8.23;5.70;;;18.30;77.10;;;;;;5069620;28;20199;-70
2022/07/27 04:35:49;;;;;;;8.23;5.83;;;18.40;76.70;;;;;;5072498;28;20195;-70
2022/07/27 04:38:14;;;;;;;8.07;6.10;;;18.50;76.40;;;;;;5064986;28;20608;-71
2022/07/27 04:40:40;;;;;;;7.23;5.00;;;18.50;76.10;;;;;;5073353;28;20200;-71
2022/07/27 04:43:06;;;;;;;7.70;5.50;;;18.50;76.20;;;;;;5070936;28;20683;-71
2022/07/27 04:45:31;;;;;;;7.13;6.03;;;18.40;76.70;;;;;;5070633;28;20189;-71
2022/07/27 04:47:57;;;;;;;12.40;6.13;;;18.50;76.50;;;;;;5064861;28;20221;-70
2022/07/27 04:50:23;;;;;;;10.90;5.80;;;18.50;76.70;;;;;;5068778;28;20223;-74
2022/07/27 04:52:49;;;;;;;8.03;5.93;;;18.60;76.10;;;;;;5065060;28;20450;-73
2022/07/27 04:55:14;;;;;;;6.90;5.50;;;18.50;76.70;;;;;;5068841;28;20213;-74
2022/07/27 04:57:40;;;;;;;7.93;6.00;;;18.60;76.40;;;;;;5064619;28;20217;-73
2022/07/27 05:00:09;;;;;;;7.33;5.67;;;18.60;76.50;;;;;;5066677;28;20660;-74
2022/07/27 05:02:39;;;;;;;9.23;6.10;;;18.70;75.90;;;;;;5061918;28;20993;-74
2022/07/27 05:05:06;;;;;;;8.57;6.43;;;18.50;76.40;;;;;;5071825;28;20437;-75
2022/07/27 05:07:32;;;;;;;8.83;5.70;;;18.50;76.80;;;;;;5065436;28;20562;-75
2022/07/27 05:09:57;;;;;;;8.30;5.40;;;18.60;76.40;;;;;;5072707;28;20903;-74
2022/07/27 05:12:23;;;;;;;11.10;6.10;;;18.60;76.70;;;;;;5074140;28;20289;-73
2022/07/27 05:14:49;;;;;;;9.03;5.97;;;18.70;76.20;;;;;;5073759;28;20188;-72
2022/07/27 05:17:14;;;;;;;13.00;7.50;;;18.70;76.10;;;;;;5074150;28;20215;-72
2022/07/27 05:19:40;;;;;;;8.37;6.43;;;18.80;76.10;;;;;;5077849;28;20182;-71
2022/07/27 05:22:05;;;;;;;15.80;7.40;;;18.60;76.40;;;;;;5066071;28;20182;-72
2022/07/27 05:24:31;;;;;;;11.73;6.20;;;18.60;76.50;;;;;;5073980;28;20209;-72
2022/07/27 05:26:56;;;;;;;10.10;6.47;;;18.60;76.80;;;;;;5065454;28;20263;-72
2022/07/27 05:29:22;;;;;;;15.57;6.73;;;18.60;76.80;;;;;;5075134;28;20216;-74
2022/07/27 05:31:48;;;;;;;9.60;6.47;;;18.50;76.70;;;;;;5076786;28;20186;-72
2022/07/27 05:34:13;;;;;;;11.30;6.97;;;18.50;77.40;;;;;;5079201;28;20220;-72
2022/07/27 05:36:39;;;;;;;7.67;6.00;;;18.60;77.10;;;;;;5074546;28;20700;-71
2022/07/27 05:39:04;;;;;;;8.07;5.93;;;18.60;77.00;;;;;;5077709;28;20198;-73
2022/07/27 05:41:30;;;;;;;8.97;7.07;;;18.70;76.70;;;;;;5070424;28;20182;-72
2022/07/27 05:43:56;;;;;;;9.73;6.50;;;18.70;76.70;;;;;;5076015;28;20217;-72
2022/07/27 05:46:22;;;;;;;10.30;7.13;;;18.70;76.40;;;;;;5069920;28;20930;-71
2022/07/27 05:48:48;;;;;;;11.63;6.73;;;18.80;76.40;;;;;;5073718;28;20215;-72
2022/07/27 05:51:13;;;;;;;9.30;6.77;;;18.80;76.50;;;;;;5074532;28;20529;-72
2022/07/27 05:53:39;;;;;;;9.17;7.03;;;18.70;76.70;;;;;;5074621;28;20186;-71
2022/07/27 05:56:06;;;;;;;11.17;6.87;;;18.80;76.40;;;;;;5063776;28;20238;-71
2022/07/27 05:58:32;;;;;;;10.17;6.80;;;18.80;76.50;;;;;;5069581;28;20251;-72
2022/07/27 06:00:58;;;;;;;10.67;6.90;;;18.80;76.40;;;;;;5069109;28;20862;-72
2022/07/27 06:03:24;;;;;;;9.07;6.80;;;18.80;76.40;;;;;;5074681;28;20224;-71
2022/07/27 06:05:50;;;;;;;12.10;7.87;;;18.80;76.20;;;;;;5073255;28;20540;-72
2022/07/27 06:08:16;;;;;;;10.77;6.83;;;18.80;76.20;;;;;;5071683;28;20569;-72
2022/07/27 06:10:42;;;;;;;8.80;6.63;;;18.90;76.40;;;;;;5075384;28;20184;-72
2022/07/27 06:13:10;;;;;;;9.10;7.27;;;18.90;76.10;;;;;;5074000;28;20234;-72
2022/07/27 06:15:37;;;;;;;10.23;6.70;;;18.90;75.80;;;;;;5077139;28;20519;-71
2022/07/27 06:18:03;;;;;;;10.43;6.20;;;18.90;76.10;;;;;;5068220;28;20507;-72
2022/07/27 06:20:29;;;;;;;10.87;7.53;;;19.00;76.10;;;;;;5071855;28;20425;-71
2022/07/27 06:22:58;;;;;;;9.70;6.53;;;19.20;75.20;;;;;;5074410;28;20951;-72
2022/07/27 06:25:25;;;;;;;10.90;6.30;;;19.30;74.80;;;;;;5067453;28;20510;-72
2022/07/27 06:27:50;;;;;;;9.50;6.83;;;19.30;74.80;;;;;;5068479;28;20496;-71
2022/07/27 06:30:17;;;;;;;13.37;7.43;;;19.20;75.20;;;;;;5066687;28;20447;-72
2022/07/27 06:32:43;;;;;;;15.47;6.20;;;19.40;74.80;;;;;;5064104;28;20281;-73
2022/07/27 06:35:10;;;;;;;7.47;5.70;;;19.40;74.80;;;;;;5066892;28;20418;-71
2022/07/27 06:37:36;;;;;;;10.90;5.93;;;19.40;74.80;;;;;;5063157;28;20595;-73
2022/07/27 06:40:03;;;;;;;11.93;6.83;;;19.50;74.20;;;;;;5064545;28;20425;-73
2022/07/27 06:42:29;;;;;;;9.17;6.80;;;19.30;74.60;;;;;;5065644;28;20489;-73
2022/07/27 06:44:55;;;;;;;8.83;6.70;;;19.10;75.50;;;;;;5060528;28;20445;-73
2022/07/27 06:47:21;;;;;;;7.90;6.50;;;19.00;76.10;;;;;;5067086;28;20209;-72
2022/07/27 06:49:46;;;;;;;10.27;6.80;;;19.20;75.50;;;;;;5063864;28;20434;-73
2022/07/27 06:52:12;;;;;;;13.37;7.20;;;19.00;76.10;;;;;;5070120;28;20251;-73
2022/07/27 06:54:38;;;;;;;8.93;7.40;;;19.30;75.70;;;;;;5064487;28;20183;-73
2022/07/27 06:57:04;;;;;;;9.60;6.63;;;19.30;75.20;;;;;;5067533;28;20215;-71
2022/07/27 06:59:31;;;;;;;9.37;6.57;;;19.40;74.90;;;;;;5069593;28;20195;-71
2022/07/27 07:01:57;;;;;;;8.50;6.40;;;19.60;74.30;;;;;;5070910;28;20928;-72
2022/07/27 07:04:23;;;;;;;12.03;7.10;;;19.70;73.70;;;;;;5071041;28;20654;-71
2022/07/27 07:06:49;;;;;;;13.30;7.20;;;19.70;73.70;;;;;;5067842;28;20292;-73
2022/07/27 07:09:15;;;;;;;8.60;6.30;;;19.60;74.30;;;;;;5069603;28;20265;-71
2022/07/27 07:11:40;;;;;;;9.83;6.23;;;19.70;74.00;;;;;;5064404;28;20995;-72
2022/07/27 07:14:06;;;;;;;10.17;7.23;;;19.70;74.00;;;;;;5071950;28;20197;-72
2022/07/27 07:16:31;;;;;;;12.40;6.90;;;19.90;73.00;;;;;;5066961;28;20218;-72
2022/07/27 07:18:57;;;;;;;10.60;6.33;;;19.90;73.30;;;;;;5065591;28;20190;-71
2022/07/27 07:21:23;;;;;;;10.30;6.90;;;20.10;72.70;;;;;;5070211;28;20188;-72
2022/07/27 07:23:48;;;;;;;9.37;6.40;;;20.20;71.80;;;;;;5063142;28;20252;-73
2022/07/27 07:26:14;;;;;;;8.40;6.80;;;20.20;71.70;;;;;;5066096;28;20299;-73
2022/07/27 07:28:40;;;;;;;11.97;6.70;;;20.20;72.00;;;;;;5061436;28;20496;-71
2022/07/27 07:31:06;;;;;;;9.70;6.80;;;20.30;71.80;;;;;;5069235;28;20562;-70
2022/07/27 07:33:31;;;;;;;9.13;6.20;;;20.20;72.10;;;;;;5068933;28;20211;-72
2022/07/27 07:35:57;;;;;;;11.00;6.23;;;20.40;71.80;;;;;;5067222;28;20458;-72
2022/07/27 07:38:23;;;;;;;7.03;6.00;;;20.60;70.80;;;;;;5062710;28;20576;-72
2022/07/27 07:40:48;;;;;;;8.53;5.87;;;20.70;70.80;;;;;;5069834;28;20181;-71
2022/07/27 07:43:14;;;;;;;9.30;6.40;;;21.10;69.90;;;;;;5070031;28;20193;-71
2022/07/27 07:45:41;;;;;;;11.07;6.67;;;20.80;69.80;;;;;;5070028;28;20193;-70
2022/07/27 07:48:07;;;;;;;10.50;7.13;;;20.40;71.00;;;;;;5056970;28;20467;-71
2022/07/27 07:50:33;;;;;;;8.70;6.70;;;20.40;71.30;;;;;;5062144;28;20441;-70
2022/07/27 07:52:58;;;;;;;13.93;7.50;;;20.30;71.40;;;;;;5071248;28;20190;-72
2022/07/27 07:55:26;;;;;;;12.17;6.30;;;20.40;71.60;;;;;;5068298;28;20512;-71
2022/07/27 07:57:53;;;;;;;8.30;6.50;;;20.80;70.40;;;;;;5068210;28;20216;-72
2022/07/27 08:00:19;;;;;;;14.47;6.63;;;20.60;70.80;;;;;;5070299;28;20424;-71
2022/07/27 08:02:47;;;;;;;11.27;7.10;;;20.70;70.20;;;;;;5067958;28;20516;-72
2022/07/27 08:05:13;;;;;;;12.30;7.70;;;20.80;69.80;;;;;;5070233;28;20424;-71
2022/07/27 08:07:39;;;;;;;10.93;7.33;;;20.90;69.50;;;;;;5063052;28;20478;-70
2022/07/27 08:10:07;;;;;;;12.23;6.80;;;20.70;70.50;;;;;;5066987;28;20472;-72
2022/07/27 08:12:33;;;;;;;12.60;6.10;;;20.70;70.50;;;;;;5064856;28;20191;-72
2022/07/27 08:14:59;;;;;;;8.43;6.53;;;20.80;70.70;;;;;;5064376;28;20419;-72
2022/07/27 08:17:25;;;;;;;9.13;6.93;;;20.70;70.20;;;;;;5057038;28;20539;-72
2022/07/27 08:19:50;;;;;;;9.83;6.20;;;20.60;71.10;;;;;;5064197;28;20181;-73
2022/07/27 08:22:16;;;;;;;11.07;6.90;;;20.90;71.00;;;;;;5055841;28;20186;-74
2022/07/27 08:24:41;;;;;;;8.47;6.27;;;20.80;70.50;;;;;;5066237;28;20188;-71
2022/07/27 08:27:07;;;;;;;8.03;6.13;;;21.10;69.90;;;;;;5065673;28;20343;-71
2022/07/27 08:29:32;;;;;;;9.50;6.80;;;21.10;69.10;;;;;;5069785;28;20237;-73
2022/07/27 08:31:58;;;;;;;10.10;6.23;;;21.00;69.50;;;;;;5072674;28;20267;-73
2022/07/27 08:34:24;;;;;;;7.07;5.97;;;21.30;68.80;;;;;;5072640;28;20272;-72
2022/07/27 08:36:49;;;;;;;9.07;6.70;;;21.40;67.90;;;;;;5068001;28;20221;-72
2022/07/27 08:39:15;;;;;;;8.30;7.07;;;21.40;67.90;;;;;;5070656;28;20598;-73
2022/07/27 08:41:41;;;;;;;7.80;6.27;;;21.50;67.50;;;;;;5070740;28;20656;-72
2022/07/27 08:44:11;;;;;;;13.80;6.67;;;21.70;67.20;;;;;;5070527;28;20266;-73
2022/07/27 08:46:39;;;;;;;8.20;6.30;;;21.80;66.90;;;;;;5069352;28;20472;-72
2022/07/27 08:49:07;;;;;;;16.40;6.30;;;21.70;67.50;;;;;;5071865;28;20518;-72
2022/07/27 08:51:33;;;;;;;9.43;6.80;;;21.80;67.30;;;;;;5070214;28;20421;-72
2022/07/27 08:53:59;;;;;;;8.97;6.00;;;21.80;66.90;;;;;;5072625;28;20904;-72
2022/07/27 08:56:26;;;;;;;10.60;6.47;;;21.90;66.90;;;;;;5071154;28;20544;-70
2022/07/27 08:58:51;;;;;;;12.50;7.20;;;21.90;66.10;;;;;;5068072;28;20428;-71
2022/07/27 09:01:17;;;;;;;16.03;7.33;;;21.50;67.50;;;;;;5072875;28;20474;-72
2022/07/27 09:03:43;;;;;;;9.73;6.33;;;21.40;68.30;;;;;;5072944;28;20210;-71
2022/07/27 09:06:09;;;;;;;13.37;7.03;;;21.30;68.80;;;;;;5066964;28;20479;-70
2022/07/27 09:08:37;;;;;;;8.90;6.30;;;21.60;67.70;;;;;;5070276;28;20304;-72
2022/07/27 09:11:13;;;;;;;13.40;7.03;;;21.60;67.50;;;;;;5073068;28;20196;-72
2022/07/27 09:13:38;;;;;;;11.07;6.47;;;21.80;66.10;;;;;;5066582;28;20420;-72
2022/07/27 09:16:07;;;;;;;9.43;6.90;;;21.70;66.10;;;;;;5068882;28;20583;-72
2022/07/27 09:18:36;;;;;;;11.73;6.87;;;21.80;66.40;;;;;;5067126;28;20296;-71
2022/07/27 09:21:10;;;;;;;11.50;7.60;;;21.40;67.70;;;;;;5071249;28;20506;-71
2022/07/27 09:23:38;;;;;;;8.27;6.27;;;21.50;67.70;;;;;;5070611;28;20976;-73
2022/07/27 09:26:18;;;;;;;9.90;6.90;;;21.70;67.70;;;;;;5066799;28;20461;-73
2022/07/27 09:28:44;;;;;;;15.03;6.93;;;21.80;67.30;;;;;;5067211;28;20475;-72
2022/07/27 09:31:12;;;;;;;10.50;6.60;;;21.70;67.90;;;;;;5069352;28;20514;-74
2022/07/27 09:33:46;;;;;;;9.23;7.30;;;21.50;68.30;;;;;;5066715;28;20212;-73
2022/07/27 09:36:13;;;;;;;8.87;6.33;;;21.40;68.50;;;;;;5063366;28;20454;-72
2022/07/27 09:38:54;;;;;;;10.33;7.07;;;21.40;68.60;;;;;;5066617;28;20428;-73
2022/07/27 09:41:20;;;;;;;10.37;6.93;;;21.40;68.00;;;;;;5067924;28;20421;-72
2022/07/27 09:43:50;;;;;;;11.20;7.57;;;21.30;68.50;;;;;;5067116;28;20481;-72
2022/07/27 09:46:28;;;;;;;8.70;6.87;;;21.40;68.30;;;;;;5062891;28;20992;-73
2022/07/27 09:48:53;;;;;;;10.30;6.50;;;21.50;68.00;;;;;;5065818;28;20472;-72
2022/07/27 09:51:19;;;;;;;9.30;6.57;;;21.60;67.70;;;;;;5064136;28;20453;-72
2022/07/27 09:53:45;;;;;;;10.23;7.10;;;21.70;67.30;;;;;;5069462;28;20219;-73
2022/07/27 09:56:14;;;;;;;7.17;5.93;;;21.80;67.20;;;;;;5060730;28;20207;-72
2022/07/27 09:58:45;;;;;;;8.27;6.70;;;21.80;66.90;;;;;;5061730;28;20195;-74
2022/07/27 10:01:19;;;;;;;9.20;6.67;;;21.70;67.50;;;;;;5057000;28;20426;-72
2022/07/27 10:03:46;;;;;;;9.30;6.20;;;21.90;67.00;;;;;;5061104;28;20419;-72
2022/07/27 10:06:12;;;;;;;7.33;6.20;;;21.90;66.60;;;;;;5063148;28;20491;-74
2022/07/27 10:08:47;;;;;;;9.80;6.60;;;22.00;66.00;;;;;;5069110;28;20465;-73
2022/07/27 10:11:14;;;;;;;9.07;6.63;;;22.20;64.40;;;;;;5065495;28;20823;-73
2022/07/27 10:13:40;;;;;;;10.27;7.43;;;22.30;63.90;;;;;;5069789;28;20433;-74
2022/07/27 10:16:10;;;;;;;8.23;6.90;;;22.40;64.50;;;;;;5071552;28;20452;-74
2022/07/27 10:18:44;;;;;;;9.33;6.90;;;22.70;64.10;;;;;;5076125;28;20419;-73
2022/07/27 10:21:11;;;;;;;10.20;6.63;;;23.00;63.20;;;;;;5064861;28;20451;-74
2022/07/27 10:23:37;;;;;;;10.93;5.80;;;23.30;61.60;;;;;;5068341;28;20873;-73
2022/07/27 10:26:15;;;;;;;16.30;7.20;;;23.50;61.70;;;;;;5065657;28;20547;-73
2022/07/27 10:28:52;;;;;;;7.70;6.80;;;23.80;60.60;;;;;;5063301;28;20468;-72
2022/07/27 10:31:22;;;;;;;7.90;6.53;;;23.70;61.20;;;;;;5066836;28;20418;-72
2022/07/27 10:33:50;;;;;;;8.57;5.93;;;24.30;59.20;;;;;;5065165;28;20464;-73
2022/07/27 10:36:22;;;;;;;8.90;6.17;;;23.70;59.20;;;;;;5063001;28;20553;-72
2022/07/27 10:38:49;;;;;;;10.80;5.97;;;23.40;60.60;;;;;;5069553;28;20428;-72
2022/07/27 10:41:42;;;;;;;10.37;5.87;;;23.40;60.10;;;;;;5077044;28;20497;-72
2022/07/27 10:44:15;;;;;;;9.60;6.23;;;23.10;61.60;;;;;;5065903;28;20442;-73
2022/07/27 10:46:52;;;;;;;8.40;6.10;;;23.40;60.90;;;;;;5064426;28;20448;-73
2022/07/27 10:49:33;;;;;;;8.80;6.10;;;23.80;59.30;;;;;;5060352;28;20515;-73
2022/07/27 10:51:59;;;;;;;8.50;5.50;;;24.00;58.90;;;;;;5068643;28;20833;-72
2022/07/27 10:54:26;;;;;;;8.10;5.70;;;24.30;58.90;;;;;;5064475;28;20418;-71
2022/07/27 10:56:54;;;;;;;8.20;5.33;;;24.20;57.80;;;;;;5065618;28;20460;-73
2022/07/27 10:59:38;;;;;;;8.07;5.90;;;24.50;57.30;;;;;;5068735;28;20434;-73
2022/07/27 11:02:09;;;;;;;9.10;5.87;;;24.50;56.10;;;;;;5068911;28;21003;-73
2022/07/27 11:04:43;;;;;;;8.03;5.47;;;24.80;54.80;;;;;;5068824;28;20459;-72
2022/07/27 11:07:09;;;;;;;5.60;5.03;;;25.00;53.80;;;;;;5058808;28;20553;-73
2022/07/27 11:09:40;;;;;;;5.93;4.43;;;25.10;54.00;;;;;;5067506;28;20472;-73
2022/07/27 11:12:08;;;;;;;7.27;5.00;;;25.20;53.00;;;;;;5067915;28;21110;-72
2022/07/27 11:14:48;;;;;;;10.50;5.60;;;25.30;53.60;;;;;;5068368;28;20790;-73
2022/07/27 11:17:17;;;;;;;6.47;5.00;;;25.30;53.80;;;;;;5064847;28;20490;-73
2022/07/27 11:19:42;;;;;;;7.57;5.30;;;25.40;53.00;;;;;;5070056;28;20448;-72
2022/07/27 11:22:09;;;;;;;8.53;5.43;;;24.50;54.80;;;;;;5063026;28;20463;-72
2022/07/27 11:24:35;;;;;;;8.20;5.40;;;24.50;55.20;;;;;;5066584;28;20215;-73
2022/07/27 11:27:02;;;;;;;7.10;5.70;;;24.40;54.60;;;;;;5060443;28;20503;-73
2022/07/27 11:29:34;;;;;;;6.97;5.70;;;24.40;54.60;;;;;;5061639;28;20841;-73
2022/07/27 11:32:00;;;;;;;8.27;6.00;;;24.10;56.00;;;;;;5060331;28;20419;-73
2022/07/27 11:34:27;;;;;;;6.17;4.77;;;24.10;56.20;;;;;;5064898;28;20452;-73
2022/07/27 11:36:53;;;;;;;7.57;5.00;;;24.10;55.00;;;;;;5062640;28;20458;-74
2022/07/27 11:39:24;;;;;;;7.57;5.17;;;24.20;54.60;;;;;;5068008;28;20506;-74
2022/07/27 11:41:58;;;;;;;8.40;4.60;;;24.30;54.80;;;;;;5063319;28;20187;-73
2022/07/27 11:44:24;;;;;;;8.97;4.87;;;24.60;52.90;;;;;;5069822;28;21221;-73
2022/07/27 11:46:51;;;;;;;5.37;4.40;;;24.60;52.10;;;;;;5061916;28;20460;-73
2022/07/27 11:49:25;;;;;;;8.90;4.30;;;24.80;50.30;;;;;;5067988;28;20973;-73
2022/07/27 11:51:52;;;;;;;5.33;4.30;;;25.10;48.20;;;;;;5068820;28;20427;-72
2022/07/27 11:54:38;;;;;;;6.90;4.13;;;25.90;47.40;;;;;;5067364;28;20423;-72
2022/07/27 11:57:14;;;;;;;7.63;4.20;;;26.50;46.70;;;;;;5061767;28;20502;-72
2022/07/27 11:59:42;;;;;;;11.30;4.90;;;27.20;45.70;;;;;;5069459;28;20421;-73
2022/07/27 12:02:12;;;;;;;6.30;4.40;;;27.40;44.70;;;;;;5070412;28;20417;-72
2022/07/27 12:04:40;;;;;;;6.53;4.47;;;26.10;47.70;;;;;;5069446;28;20430;-74
2022/07/27 12:07:10;;;;;;;7.53;4.20;;;25.10;50.10;;;;;;5062655;28;20459;-73
2022/07/27 12:09:44;;;;;;;9.40;4.60;;;24.50;51.80;;;;;;5069958;28;20561;-72
2022/07/27 12:12:20;;;;;;;6.70;4.20;;;24.50;52.40;;;;;;5069923;28;20416;-73
2022/07/27 12:14:55;;;;;;;9.73;4.60;;;24.60;52.50;;;;;;5065810;28;20479;-72
2022/07/27 12:17:29;;;;;;;4.80;4.00;;;24.70;52.00;;;;;;5066849;28;21106;-73
2022/07/27 12:20:01;;;;;;;7.07;4.77;;;24.70;51.80;;;;;;5061640;28;20429;-74
2022/07/27 12:22:34;;;;;;;6.10;4.33;;;24.90;51.80;;;;;;5068094;28;20489;-73
2022/07/27 12:25:06;;;;;;;4.87;4.23;;;24.90;51.20;;;;;;5065897;28;20485;-73
2022/07/27 12:27:32;;;;;;;7.57;4.90;;;24.80;51.80;;;;;;5063701;28;20460;-73
2022/07/27 12:30:11;;;;;;;7.80;5.07;;;25.00;51.00;;;;;;5068209;28;20818;-74
2022/07/27 12:32:40;;;;;;;6.60;4.43;;;25.20;50.50;;;;;;5075461;28;20430;-74
2022/07/27 12:35:24;;;;;;;8.70;4.30;;;25.20;50.60;;;;;;5076015;28;20455;-74
2022/07/27 12:38:04;;;;;;;5.70;4.97;;;24.90;50.50;;;;;;5069027;28;20467;-73
2022/07/27 12:40:32;;;;;;;4.70;4.03;;;24.50;50.90;;;;;;5072056;28;20504;-72
2022/07/27 12:43:05;;;;;;;6.57;3.83;;;24.60;50.90;;;;;;5069908;28;20428;-72
2022/07/27 12:45:35;;;;;;;6.60;4.17;;;24.80;50.20;;;;;;5071515;28;20433;-73
2022/07/27 12:48:23;;;;;;;3.50;3.33;;;25.10;49.10;;;;;;5067340;28;20507;-72
2022/07/27 12:51:01;;;;;;;11.23;3.90;;;25.10;48.70;;;;;;5068266;28;20918;-72